createdAt,value
2023-03-18T00:04:24.413Z,8.58
2023-03-18T00:09:28.882Z,8.50
2023-03-18T00:14:34.414Z,8.59
2023-03-18T00:19:38.154Z,8.55
2023-03-18T00:24:41.079Z,8.56
2023-03-18T00:29:45.959Z,8.58
2023-03-18T00:34:50.729Z,8.59
2023-03-18T00:39:54.554Z,8.62
2023-03-18T00:45:00.495Z,8.64
2023-03-18T00:50:03.956Z,8.63
2023-03-18T00:55:08.320Z,8.65
2023-03-18T01:00:17.122Z,8.66
2023-03-18T01:05:20.803Z,8.67
2023-03-18T01:10:23.676Z,8.65
2023-03-18T01:15:30.392Z,8.65
2023-03-18T01:20:33.910Z,8.65
2023-03-18T01:25:38.541Z,8.65
2023-03-18T01:30:47.799Z,8.62
2023-03-18T01:35:56.539Z,8.60
2023-03-18T01:41:02.970Z,8.59
2023-03-18T01:46:39.030Z,8.55
2023-03-18T01:51:46.296Z,8.55
2023-03-18T01:56:51.723Z,8.54
2023-03-18T02:02:01.570Z,8.54
2023-03-18T02:07:08.634Z,8.53
2023-03-18T02:12:13.782Z,8.33
2023-03-18T02:17:30.249Z,8.41
2023-03-18T02:22:39.242Z,8.42
2023-03-18T02:27:49.445Z,8.41
2023-03-18T02:32:53.800Z,8.42
2023-03-18T02:37:59.398Z,8.39
2023-03-18T02:43:24.668Z,8.38
2023-03-18T02:48:37.645Z,8.35
2023-03-18T02:53:41.864Z,8.31
2023-03-18T02:58:47.017Z,8.30
2023-03-18T03:03:52.280Z,8.29
2023-03-18T03:08:55.588Z,8.25
2023-03-18T03:14:01.306Z,8.20
2023-03-18T03:19:07.085Z,8.15
2023-03-18T03:24:13.176Z,8.08
2023-03-18T03:29:18.432Z,8.05
2023-03-18T03:34:21.338Z,8.04
2023-03-18T03:39:24.345Z,8.03
2023-03-18T03:44:31.099Z,7.97
2023-03-18T03:49:34.271Z,7.97
2023-03-18T03:54:38.129Z,7.95
2023-03-18T03:59:42.323Z,7.86
2023-03-18T04:04:54.617Z,7.76
2023-03-18T04:10:02.686Z,7.68
2023-03-18T04:15:11.079Z,7.56
2023-03-18T04:20:14.827Z,7.47
2023-03-18T04:25:17.790Z,7.35
2023-03-18T04:30:25.548Z,7.24
2023-03-18T04:35:35.486Z,7.09
2023-03-18T04:40:39.559Z,6.97
2023-03-18T04:45:43.895Z,6.84
2023-03-18T04:50:48.343Z,6.70
2023-03-18T04:55:57.927Z,6.62
2023-03-18T05:01:09.442Z,6.58
2023-03-18T05:06:23.076Z,6.51
2023-03-18T05:11:33.100Z,6.53
2023-03-18T05:16:45.789Z,6.44
2023-03-18T05:21:49.761Z,6.36
2023-03-18T05:26:56.044Z,6.23
2023-03-18T05:32:07.122Z,6.08
2023-03-18T05:37:11.404Z,6.04
2023-03-18T05:42:19.758Z,6.02
2023-03-18T05:47:24.446Z,5.98
2023-03-18T05:52:36.324Z,5.87
2023-03-18T05:57:43.399Z,5.94
2023-03-18T06:02:48.868Z,5.90
2023-03-18T06:07:54.868Z,5.97
2023-03-18T06:12:58.376Z,6.12
2023-03-18T06:18:04.734Z,6.24
2023-03-18T06:23:07.772Z,6.33
2023-03-18T06:28:11.066Z,6.50
2023-03-18T06:33:16.480Z,6.76
2023-03-18T06:38:19.364Z,7.04
2023-03-18T06:43:22.741Z,7.27
2023-03-18T06:48:28.357Z,7.54
2023-03-18T06:53:36.323Z,7.83
2023-03-18T06:58:39.480Z,8.23
2023-03-18T07:03:46.349Z,8.70
2023-03-18T07:08:50.174Z,9.09
2023-03-18T07:13:53.190Z,9.44
2023-03-18T07:19:04.378Z,9.76
2023-03-18T07:24:09.466Z,10.11
2023-03-18T07:29:12.431Z,10.40
2023-03-18T07:34:17.798Z,10.77
2023-03-18T07:39:20.929Z,11.08
2023-03-18T07:44:24.026Z,11.44
2023-03-18T07:49:30.065Z,11.62
2023-03-18T07:54:35.720Z,11.79
2023-03-18T07:59:38.914Z,11.99
2023-03-18T08:04:44.441Z,12.07
2023-03-18T08:09:54.155Z,12.24
2023-03-18T08:14:57.926Z,12.50
2023-03-18T08:20:02.667Z,12.38
2023-03-18T08:25:06.735Z,12.43
2023-03-18T08:30:11.036Z,12.77
2023-03-18T08:35:15.607Z,13.23
2023-03-18T08:40:20.344Z,13.17
2023-03-18T08:45:23.289Z,13.21
2023-03-18T08:50:29.847Z,13.64
2023-03-18T08:55:36.412Z,13.41
2023-03-18T09:00:43.451Z,13.84
2023-03-18T09:05:50.427Z,14.10
2023-03-18T09:10:57.477Z,14.08
2023-03-18T09:16:00.587Z,14.37
2023-03-18T09:21:05.478Z,14.42
2023-03-18T09:26:13.348Z,14.48
2023-03-18T09:31:16.502Z,14.29
2023-03-18T09:36:20.850Z,14.47
2023-03-18T09:41:38.918Z,14.57
2023-03-18T09:46:54.723Z,14.80
2023-03-18T09:52:14.768Z,14.80
2023-03-18T09:57:23.931Z,15.41
2023-03-18T10:02:33.536Z,15.52
2023-03-18T10:07:42.863Z,15.75
2023-03-18T10:12:51.682Z,15.70
2023-03-18T10:17:58.486Z,16.36
2023-03-18T10:23:21.444Z,16.47
2023-03-18T10:29:15.251Z,16.62
2023-03-18T10:34:22.966Z,16.85
2023-03-18T10:39:28.680Z,17.24
2023-03-18T10:44:35.802Z,17.22
2023-03-18T10:49:43.433Z,17.09
2023-03-18T10:54:52.476Z,17.50
2023-03-18T10:59:55.753Z,17.21
2023-03-18T11:05:06.038Z,17.33
2023-03-18T11:10:18.806Z,17.24
2023-03-18T11:15:24.145Z,17.65
2023-03-18T11:20:42.857Z,18.49
2023-03-18T11:25:56.603Z,18.79
2023-03-18T11:31:06.522Z,19.10
2023-03-18T11:36:14.347Z,19.49
2023-03-18T11:41:26.538Z,18.87
2023-03-18T11:46:33.602Z,19.21
2023-03-18T11:51:45.871Z,19.26
2023-03-18T11:56:57.251Z,19.38
2023-03-18T12:02:19.840Z,19.66
2023-03-18T12:07:42.959Z,20.35
2023-03-18T12:13:00.046Z,19.43
2023-03-18T12:18:12.975Z,18.58
2023-03-18T12:23:32.463Z,19.08
2023-03-18T12:29:01.670Z,18.67
2023-03-18T12:34:05.825Z,18.80
2023-03-18T12:39:33.940Z,18.87
2023-03-18T12:44:58.697Z,19.19
2023-03-18T12:50:04.672Z,18.75
2023-03-18T12:55:13.022Z,18.89
2023-03-18T13:00:27.995Z,19.88
2023-03-18T13:05:40.728Z,19.89
2023-03-18T13:10:48.483Z,19.17
2023-03-18T13:15:54.628Z,18.55
2023-03-18T13:20:59.927Z,18.31
2023-03-18T13:26:11.749Z,18.36
2023-03-18T13:31:27.161Z,17.91
2023-03-18T13:37:15.555Z,17.91
2023-03-18T13:42:26.195Z,17.56
2023-03-18T13:47:34.727Z,17.32
2023-03-18T13:52:43.973Z,17.17
2023-03-18T13:57:49.111Z,16.80
2023-03-18T14:03:07.770Z,17.38
2023-03-18T14:08:35.159Z,17.03
2023-03-18T14:13:38.328Z,16.85
2023-03-18T14:18:43.135Z,16.62
2023-03-18T14:24:07.642Z,16.18
2023-03-18T14:29:26.132Z,16.41
2023-03-18T14:34:33.951Z,16.57
2023-03-18T14:39:42.705Z,16.28
2023-03-18T14:44:50.340Z,16.30
2023-03-18T14:50:05.392Z,16.27
2023-03-18T14:55:20.735Z,16.29
2023-03-18T15:00:24.217Z,16.38
2023-03-18T15:05:36.230Z,16.77
2023-03-18T15:10:41.689Z,16.70
2023-03-18T15:15:47.027Z,16.84
2023-03-18T15:20:55.779Z,17.23
2023-03-18T15:25:59.820Z,17.55
2023-03-18T15:31:05.820Z,17.71
2023-03-18T15:36:16.481Z,17.16
2023-03-18T15:41:23.341Z,17.35
2023-03-18T15:46:30.651Z,16.85
2023-03-18T15:51:43.623Z,16.94
2023-03-18T15:56:51.682Z,16.67
2023-03-18T16:02:00.475Z,16.64
2023-03-18T16:07:17.227Z,16.61
2023-03-18T16:12:24.042Z,16.45
2023-03-18T16:17:26.874Z,16.78
2023-03-18T16:22:33.644Z,16.39
2023-03-18T16:27:39.290Z,16.20
2023-03-18T16:32:43.197Z,16.17
2023-03-18T16:37:49.260Z,16.15
2023-03-18T16:42:52.951Z,16.10
2023-03-18T16:48:00.621Z,15.87
2023-03-18T16:53:13.712Z,15.74
2023-03-18T16:58:20.979Z,15.52
2023-03-18T17:03:23.977Z,15.33
2023-03-18T17:08:29.190Z,15.03
2023-03-18T17:13:38.927Z,14.82
2023-03-18T17:18:43.592Z,14.66
2023-03-18T17:23:50.073Z,14.48
2023-03-18T17:28:53.965Z,14.24
2023-03-18T17:34:03.788Z,13.98
2023-03-18T17:39:08.988Z,13.63
2023-03-18T17:44:29.910Z,13.29
2023-03-18T17:49:39.953Z,13.00
2023-03-18T17:54:44.690Z,12.85
2023-03-18T17:59:54.026Z,12.53
2023-03-18T18:04:58.881Z,12.37
2023-03-18T18:10:03.154Z,12.08
2023-03-18T18:15:09.898Z,11.84
2023-03-18T18:20:16.290Z,11.49
2023-03-18T18:25:23.229Z,11.32
2023-03-18T18:30:27.929Z,11.18
2023-03-18T18:35:30.792Z,11.02
2023-03-18T18:40:35.773Z,10.93
2023-03-18T18:45:38.683Z,10.77
2023-03-18T18:50:43.697Z,10.59
2023-03-18T18:55:49.208Z,10.37
2023-03-18T19:00:53.005Z,10.08
2023-03-18T19:05:56.794Z,10.00
2023-03-18T19:11:03.944Z,9.80
2023-03-18T19:16:21.153Z,9.67
2023-03-18T19:21:24.624Z,9.51
2023-03-18T19:26:29.499Z,9.52
2023-03-18T19:31:35.518Z,9.51
2023-03-18T19:36:41.541Z,9.30
2023-03-18T19:41:48.031Z,9.16
2023-03-18T19:46:54.856Z,9.00
2023-03-18T19:51:57.741Z,8.94
2023-03-18T19:57:04.317Z,8.76
2023-03-18T20:02:21.037Z,8.68
2023-03-18T20:07:34.057Z,8.68
2023-03-18T20:12:40.348Z,8.66
2023-03-18T20:17:46.588Z,8.64
2023-03-18T20:22:53.867Z,8.65
2023-03-18T20:28:07.427Z,8.58
2023-03-18T20:33:10.659Z,8.49
2023-03-18T20:38:18.833Z,8.42
2023-03-18T20:43:25.492Z,8.36
2023-03-18T20:48:28.673Z,8.29
2023-03-18T20:53:37.890Z,8.36
2023-03-18T20:58:42.754Z,8.46
2023-03-18T21:03:49.054Z,8.48
2023-03-18T21:08:54.191Z,8.47
2023-03-18T21:13:58.935Z,8.49
2023-03-18T21:19:05.203Z,8.49
2023-03-18T21:24:25.074Z,8.48
2023-03-18T21:29:29.394Z,8.53
2023-03-18T21:34:33.308Z,8.53
2023-03-18T21:39:36.725Z,8.57
2023-03-18T21:44:41.265Z,8.58
2023-03-18T21:49:46.863Z,8.60
2023-03-18T21:54:50.044Z,8.49
2023-03-18T21:59:55.729Z,8.52
2023-03-18T22:05:01.383Z,8.53
2023-03-18T22:10:06.791Z,8.53
2023-03-18T22:15:35.901Z,8.54
2023-03-18T22:20:39.584Z,8.50
2023-03-18T22:25:44.535Z,8.53
2023-03-18T22:30:52.373Z,8.55
2023-03-18T22:35:55.843Z,8.52
2023-03-18T22:40:59.929Z,8.52
2023-03-18T22:46:08.111Z,8.52
2023-03-18T22:51:22.869Z,8.53
2023-03-18T22:56:25.877Z,8.50
2023-03-18T23:01:32.206Z,8.45
2023-03-18T23:06:35.412Z,8.51
2023-03-18T23:11:38.325Z,8.47
2023-03-18T23:16:42.509Z,8.47
2023-03-18T23:21:45.359Z,8.46
2023-03-18T23:26:51.260Z,8.41
2023-03-18T23:31:57.916Z,8.43
2023-03-18T23:37:09.784Z,8.41
2023-03-18T23:42:13.781Z,8.40
2023-03-18T23:47:18.029Z,8.44
2023-03-18T23:52:21.067Z,8.44
2023-03-18T23:57:24.224Z,8.42
